Time;durP1;ratioP1;P1;durP2;ratioP2;P2;SDS_P1;SDS_P2;PMS_P1;PMS_P2;Temp;Humidity;BMP_temperature;BMP_pressure;BME280_temperature;BME280_humidity;BME280_pressure;Samples;Min_cycle;Max_cycle;Signal;HPM_P1;HPM_P2
2023/11/07 00:02:26;;;;;;;;;;;10.50;61.80;;;5.67;100.00;95264.31;5013434;28;20368;-57
2023/11/07 00:04:52;;;;;;;;;;;10.50;61.90;;;5.64;100.00;95262.13;5012607;28;20390;-57
2023/11/07 00:07:18;;;;;;;;;;;10.40;61.90;;;5.58;100.00;95257.81;5013485;28;19943;-51
2023/11/07 00:09:45;;;;;;;;;;;10.40;62.00;;;5.52;100.00;95254.28;5013114;28;19915;-57
2023/11/07 00:12:11;;;;;;;;;;;10.30;61.90;;;5.48;100.00;95262.91;5010819;28;19963;-57
2023/11/07 00:14:37;;;;;;;;;;;10.30;61.90;;;5.41;100.00;95264.94;5013185;28;19916;-53
2023/11/07 00:17:03;;;;;;;;;;;10.20;62.00;;;5.38;100.00;95260.13;5012342;28;19924;-54
2023/11/07 00:19:29;;;;;;;;;;;10.10;62.00;;;5.33;100.00;95268.78;5012738;28;20291;-53
2023/11/07 00:21:57;;;;;;;;;;;10.10;62.10;;;5.29;100.00;95265.78;5013045;28;19916;-53
2023/11/07 00:24:23;;;;;;;;;;;10.10;62.90;;;5.26;100.00;95263.63;5012049;28;20003;-50
2023/11/07 00:26:48;;;;;;;;;;;10.00;62.10;;;5.21;100.00;95274.13;5012651;28;20016;-51
2023/11/07 00:29:15;;;;;;;;;;;10.00;62.20;;;5.14;100.00;95265.56;5012022;28;20339;-53
2023/11/07 00:31:41;;;;;;;;;;;9.90;62.20;;;5.04;100.00;95265.34;5012956;28;19909;-55
2023/11/07 00:34:07;;;;;;;;;;;9.80;62.10;;;4.92;100.00;95265.44;5012665;28;20391;-55
2023/11/07 00:36:33;;;;;;;;;;;9.80;62.20;;;4.85;100.00;95264.75;5012021;28;19909;-55
2023/11/07 00:39:01;;;;;;;;;;;9.70;62.20;;;4.78;100.00;95267.53;5012318;28;19927;-54
2023/11/07 00:41:27;;;;;;;;;;;9.60;62.20;;;4.72;100.00;95265.03;5011842;28;19909;-52
2023/11/07 00:43:55;;;;;;;;;;;9.50;62.20;;;4.66;100.00;95261.50;5012586;28;19916;-55
2023/11/07 00:46:21;;;;;;;;;;;9.40;62.30;;;4.59;100.00;95264.25;5012298;28;20291;-48
2023/11/07 00:48:47;;;;;;;;;;;9.40;62.50;;;4.56;100.00;95269.22;5012168;28;19909;-54
2023/11/07 00:51:13;;;;;;;;;;;9.40;62.70;;;4.52;100.00;95263.59;5012616;28;19932;-53
2023/11/07 00:53:39;;;;;;;;;;;9.40;62.90;;;4.55;100.00;95271.06;5011463;28;19921;-53
2023/11/07 00:56:08;;;;;;;;;;;9.40;63.00;;;4.57;100.00;95260.25;5012391;28;19915;-53
2023/11/07 00:58:34;;;;;;;;;;;9.40;63.20;;;4.59;100.00;95263.47;5011386;28;19954;-52
2023/11/07 01:01:04;;;;;;;;;;;9.40;63.30;;;4.66;100.00;95265.97;5012317;28;20007;-55
2023/11/07 01:03:29;;;;;;;;;;;9.40;63.30;;;4.70;100.00;95257.38;5007956;28;20331;-55
2023/11/07 01:05:55;;;;;;;;;;;9.50;63.50;;;4.74;100.00;95263.75;5007972;28;19909;-52
2023/11/07 01:08:21;;;;;;;;;;;9.50;63.50;;;4.78;100.00;95256.97;5012163;28;20435;-52
2023/11/07 01:10:47;;;;;;;;;;;9.60;63.50;;;4.78;100.00;95259.59;5011076;28;19952;-55
2023/11/07 01:13:14;;;;;;;;;;;9.60;63.30;;;4.78;100.00;95256.97;5012040;28;19915;-54
2023/11/07 01:15:41;;;;;;;;;;;9.60;63.30;;;4.77;100.00;95263.28;5012326;28;19970;-50
2023/11/07 01:18:08;;;;;;;;;;;9.60;63.30;;;4.79;100.00;95257.78;5011080;28;19916;-51
2023/11/07 01:20:35;;;;;;;;;;;9.60;63.40;;;4.79;100.00;95261.19;5012129;28;19913;-51
2023/11/07 01:23:00;;;;;;;;;;;9.60;63.40;;;4.81;100.00;95267.06;4993344;28;19951;-53
2023/11/07 01:25:29;;;;;;;;;;;9.60;63.40;;;4.81;100.00;95267.06;5012103;28;19944;-51
2023/11/07 01:27:55;;;;;;;;;;;9.60;63.50;;;4.84;100.00;95271.06;5011691;28;19913;-55
2023/11/07 01:30:22;;;;;;;;;;;9.70;63.60;;;4.87;100.00;95275.88;5011145;28;19909;-52
2023/11/07 01:32:50;;;;;;;;;;;9.70;63.70;;;4.92;100.00;95273.34;5011239;28;19947;-53
2023/11/07 01:35:19;;;;;;;;;;;9.70;63.80;;;4.98;100.00;95272.41;5011182;28;19913;-56
2023/11/07 01:37:45;;;;;;;;;;;9.80;63.90;;;5.03;100.00;95269.03;5011527;28;19916;-52
2023/11/07 01:40:12;;;;;;;;;;;9.80;63.90;;;5.07;100.00;95270.16;5012034;28;19909;-54
2023/11/07 01:42:48;;;;;;;;;;;9.90;63.90;;;5.09;100.00;95268.88;5011069;28;19916;-53
2023/11/07 01:45:15;;;;;;;;;;;9.90;63.90;;;5.15;100.00;95271.63;5006517;28;19909;-53
2023/11/07 01:47:44;;;;;;;;;;;9.90;63.90;;;5.20;100.00;95261.13;5010640;28;19913;-53
2023/11/07 01:50:12;;;;;;;;;;;10.00;64.00;;;5.22;100.00;95261.72;5011895;28;20001;-53
2023/11/07 01:52:40;;;;;;;;;;;10.00;63.90;;;5.27;100.00;95256.53;5011067;28;19971;-54
2023/11/07 01:55:08;;;;;;;;;;;10.10;64.00;;;5.27;100.00;95259.16;5011605;28;19931;-52
2023/11/07 01:57:36;;;;;;;;;;;10.10;64.00;;;5.31;100.00;95263.72;5011784;28;20372;-51
2023/11/07 02:00:11;;;;;;;;;;;10.10;64.00;;;5.36;100.00;95264.81;4991923;28;19909;-53
2023/11/07 02:02:41;;;;;;;;;;;10.20;64.00;;;5.39;100.00;95256.44;5011846;28;19915;-53
2023/11/07 02:05:12;;;;;;;;;;;10.20;64.10;;;5.44;100.00;95259.16;5010929;28;19916;-52
2023/11/07 02:07:39;;;;;;;;;;;10.30;64.10;;;5.46;100.00;95259.72;5008454;28;20004;-56
2023/11/07 02:10:11;;;;;;;;;;;10.30;64.10;;;5.45;100.00;95266.88;5011991;28;20340;-51
2023/11/07 02:12:37;;;;;;;;;;;10.30;64.00;;;5.47;100.00;95269.25;5010725;28;19909;-55
2023/11/07 02:15:34;;;;;;;;;;;10.30;64.00;;;5.50;100.00;95269.56;5011539;28;19935;-53
2023/11/07 02:18:00;;;;;;;;;;;10.30;64.00;;;5.53;100.00;95270.94;5011037;28;19948;-46
2023/11/07 02:20:26;;;;;;;;;;;10.40;64.10;;;5.56;100.00;95276.53;5011670;28;20364;-46
2023/11/07 02:23:04;;;;;;;;;;;10.40;64.10;;;5.61;100.00;95275.84;4992709;28;19909;-45
2023/11/07 02:25:30;;;;;;;;;;;10.40;64.10;;;5.64;100.00;95275.34;5011657;28;20327;-45
2023/11/07 02:27:56;;;;;;;;;;;10.50;64.10;;;5.69;100.00;95275.41;5011246;28;19952;-46
2023/11/07 02:30:22;;;;;;;;;;;10.50;64.10;;;5.72;100.00;95274.13;5010583;28;20376;-45
2023/11/07 02:32:48;;;;;;;;;;;10.50;64.00;;;5.73;100.00;95270.44;5011403;28;19916;-47
2023/11/07 02:35:14;;;;;;;;;;;10.60;64.10;;;5.75;100.00;95278.94;5008844;28;19916;-46
2023/11/07 02:37:40;;;;;;;;;;;10.60;64.00;;;5.79;100.00;95275.56;5011179;28;19917;-46
2023/11/07 02:40:11;;;;;;;;;;;10.60;64.00;;;5.80;100.00;95277.19;5011453;28;20012;-46
2023/11/07 02:42:37;;;;;;;;;;;10.60;64.00;;;5.84;100.00;95274.84;5010989;28;19909;-48
2023/11/07 02:45:03;;;;;;;;;;;10.70;64.00;;;5.85;100.00;95263.22;5014910;28;19915;-46
2023/11/07 02:47:29;;;;;;;;;;;10.70;63.90;;;5.88;100.00;95272.53;5013522;28;19917;-46
2023/11/07 02:49:55;;;;;;;;;;;10.70;64.00;;;5.92;100.00;95274.47;5014768;28;19915;-46
2023/11/07 02:52:22;;;;;;;;;;;10.70;63.90;;;5.94;100.00;95268.94;5013993;28;19991;-54
2023/11/07 02:54:48;;;;;;;;;;;10.70;63.90;;;5.97;100.00;95273.75;5014495;28;20378;-46
2023/11/07 02:57:14;;;;;;;;;;;10.70;63.90;;;5.96;100.00;95278.22;5007433;28;19994;-47
2023/11/07 02:59:45;;;;;;;;;;;10.80;64.00;;;5.97;100.00;95271.91;5013569;28;20050;-46
2023/11/07 03:02:12;;;;;;;;;;;10.80;64.00;;;6.02;100.00;95274.63;5014802;28;20382;-45
2023/11/07 03:04:38;;;;;;;;;;;10.80;64.70;;;6.06;100.00;95274.13;5012814;28;19909;-46
2023/11/07 03:07:04;;;;;;;;;;;10.80;64.00;;;6.07;100.00;95271.22;5014019;28;19944;-45
2023/11/07 03:09:30;;;;;;;;;;;10.80;64.00;;;6.09;100.00;95265.72;5014537;28;19909;-46
2023/11/07 03:11:56;;;;;;;;;;;10.80;63.90;;;6.08;100.00;95270.22;5013274;28;19915;-47
2023/11/07 03:14:22;;;;;;;;;;;10.90;64.00;;;6.08;100.00;95274.66;5014368;28;19944;-46
2023/11/07 03:16:48;;;;;;;;;;;10.90;64.00;;;6.08;100.00;95275.50;5013472;28;19917;-45
2023/11/07 03:19:13;;;;;;;;;;;10.90;63.90;;;6.11;100.00;95272.38;5014214;28;20375;-45
2023/11/07 03:21:40;;;;;;;;;;;10.90;63.90;;;6.11;100.00;95268.91;5014205;28;19913;-47
2023/11/07 03:24:08;;;;;;;;;;;10.90;64.00;;;6.12;100.00;95268.66;5013220;28;19909;-46
2023/11/07 03:26:34;;;;;;;;;;;10.90;63.90;;;6.12;100.00;95268.66;5013999;28;19920;-49
2023/11/07 03:29:01;;;;;;;;;;;10.90;63.90;;;6.13;100.00;95274.75;5013152;28;19915;-46
2023/11/07 03:31:26;;;;;;;;;;;10.90;63.90;;;6.14;100.00;95282.47;5014232;28;20327;-46
2023/11/07 03:33:52;;;;;;;;;;;10.90;64.00;;;6.17;100.00;95281.16;5013864;28;19992;-50
2023/11/07 03:36:18;;;;;;;;;;;10.90;64.00;;;6.16;100.00;95284.84;5011946;28;20394;-44
2023/11/07 03:38:44;;;;;;;;;;;10.90;64.00;;;6.14;100.00;95282.47;5013824;28;19924;-47
2023/11/07 03:41:10;;;;;;;;;;;10.90;64.10;;;6.20;100.00;95278.81;5013096;28;19909;-47
2023/11/07 03:43:37;;;;;;;;;;;10.90;64.10;;;6.22;100.00;95273.28;5013903;28;19916;-45
2023/11/07 03:46:03;;;;;;;;;;;10.90;64.10;;;6.25;100.00;95272.81;4996425;28;20303;-47
2023/11/07 03:48:29;;;;;;;;;;;10.90;64.10;;;6.25;100.00;95278.09;4993997;28;20011;-51
2023/11/07 03:50:55;;;;;;;;;;;10.90;64.10;;;6.22;100.00;95281.22;5008811;28;19909;-52
2023/11/07 03:53:21;;;;;;;;;;;10.90;64.00;;;6.21;100.00;95287.56;5012662;28;19909;-49
2023/11/07 03:55:48;;;;;;;;;;;10.90;63.90;;;6.16;100.00;95284.84;5013060;28;19909;-48
2023/11/07 03:58:14;;;;;;;;;;;10.80;63.80;;;6.08;100.00;95288.72;5013499;28;19959;-48
2023/11/07 04:00:45;;;;;;;;;;;10.80;63.80;;;6.00;100.00;95286.47;5012772;28;19913;-50
2023/11/07 04:03:11;;;;;;;;;;;10.70;63.60;;;5.96;100.00;95288.00;5013433;28;20359;-49
2023/11/07 04:05:37;;;;;;;;;;;10.70;63.70;;;5.87;100.00;95284.16;5012603;28;19909;-48
2023/11/07 04:08:03;;;;;;;;;;;10.60;63.70;;;5.83;100.00;95289.13;5013237;28;19919;-48
2023/11/07 04:10:31;;;;;;;;;;;10.50;63.80;;;5.78;100.00;95286.38;5011867;28;26739;-48
2023/11/07 04:12:57;;;;;;;;;;;10.40;63.80;;;5.74;100.00;95291.34;5013090;28;19924;-48
2023/11/07 04:15:23;;;;;;;;;;;10.40;63.80;;;5.66;100.00;95290.94;5012061;28;20427;-48
2023/11/07 04:17:50;;;;;;;;;;;10.30;63.90;;;5.54;100.00;95291.03;4994440;28;20023;-50
2023/11/07 04:20:16;;;;;;;;;;;10.20;63.80;;;5.42;100.00;95287.66;5013165;28;19909;-48
2023/11/07 04:22:43;;;;;;;;;;;10.10;63.70;;;5.34;100.00;95302.84;5012319;28;20627;-49
2023/11/07 04:25:10;;;;;;;;;;;10.00;63.80;;;5.31;100.00;95300.69;5013158;28;20007;-48
2023/11/07 04:27:36;;;;;;;;;;;10.00;64.10;;;5.32;100.00;95302.28;5012849;28;19913;-47
2023/11/07 04:30:06;;;;;;;;;;;10.00;64.30;;;5.34;100.00;95294.13;5011915;28;19909;-48
2023/11/07 04:32:34;;;;;;;;;;;10.00;64.50;;;5.33;100.00;95298.63;5013022;28;19913;-50
2023/11/07 04:35:05;;;;;;;;;;;10.00;64.60;;;5.33;100.00;95297.81;5009397;28;20327;-48
2023/11/07 04:37:31;;;;;;;;;;;9.90;64.60;;;5.34;100.00;95294.13;5012849;28;19915;-47
2023/11/07 04:39:57;;;;;;;;;;;9.90;64.80;;;5.34;100.00;95294.13;5012603;28;20510;-47
2023/11/07 04:42:23;;;;;;;;;;;9.90;64.90;;;5.38;100.00;95295.25;5011805;28;20004;-47
2023/11/07 04:44:50;;;;;;;;;;;9.90;65.00;;;5.44;100.00;95293.50;5012465;28;19913;-47
2023/11/07 04:47:17;;;;;;;;;;;9.90;65.20;;;5.50;100.00;95292.56;5011563;28;19913;-47
2023/11/07 04:49:43;;;;;;;;;;;10.00;65.30;;;5.56;100.00;95296.88;5012541;28;19992;-48
2023/11/07 04:52:09;;;;;;;;;;;10.00;65.30;;;5.59;100.00;95293.75;5012404;28;20047;-48
2023/11/07 04:54:35;;;;;;;;;;;10.00;65.30;;;5.63;100.00;95294.88;5011752;28;19909;-48
2023/11/07 04:57:01;;;;;;;;;;;10.00;65.30;;;5.62;100.00;95301.22;5012513;28;19944;-47
2023/11/07 04:59:27;;;;;;;;;;;10.00;65.10;;;5.60;100.00;95291.91;5011297;28;19960;-48
2023/11/07 05:01:53;;;;;;;;;;;10.00;64.90;;;5.54;100.00;95293.66;5012610;28;19909;-48
2023/11/07 05:04:19;;;;;;;;;;;10.00;64.80;;;5.43;100.00;95291.91;5012316;28;20020;-49
2023/11/07 05:06:46;;;;;;;;;;;10.00;64.70;;;5.27;100.00;95288.22;5010370;28;19959;-48
2023/11/07 05:09:13;;;;;;;;;;;9.90;64.50;;;5.09;100.00;95297.94;5012435;28;20351;-49
2023/11/07 05:11:40;;;;;;;;;;;9.90;64.20;;;4.94;100.00;95296.84;5011057;28;19928;-50
2023/11/07 05:14:10;;;;;;;;;;;9.80;64.10;;;4.85;100.00;95302.50;5012470;28;19963;-48
2023/11/07 05:16:38;;;;;;;;;;;9.70;64.10;;;4.77;100.00;95297.59;5011486;28;20327;-48
2023/11/07 05:19:07;;;;;;;;;;;9.60;64.20;;;4.74;100.00;95298.06;5011998;28;19909;-48
2023/11/07 05:21:35;;;;;;;;;;;9.50;64.30;;;4.78;100.00;95301.03;5012161;28;19913;-49
2023/11/07 05:24:04;;;;;;;;;;;9.50;64.70;;;4.82;100.00;95299.53;5011228;28;20268;-51
2023/11/07 05:26:30;;;;;;;;;;;9.40;64.90;;;4.84;100.00;95306.19;5012093;28;20378;-48
2023/11/07 05:28:56;;;;;;;;;;;9.40;65.10;;;4.92;100.00;95312.94;4992113;28;20503;-50
2023/11/07 05:31:22;;;;;;;;;;;9.40;65.50;;;4.94;100.00;95304.78;5010660;28;19909;-49
2023/11/07 05:33:49;;;;;;;;;;;9.50;65.60;;;5.01;100.00;95308.06;5011750;28;19919;-48
2023/11/07 05:36:17;;;;;;;;;;;9.50;65.70;;;5.07;100.00;95307.91;5011218;28;19913;-49
2023/11/07 05:38:44;;;;;;;;;;;9.50;65.90;;;5.16;100.00;95307.53;5011710;28;19924;-48
2023/11/07 05:41:14;;;;;;;;;;;9.60;66.10;;;5.21;100.00;95311.09;5003148;28;19913;-47
2023/11/07 05:43:40;;;;;;;;;;;9.60;66.10;;;5.28;100.00;95305.66;5011872;28;19954;-50
2023/11/07 05:46:07;;;;;;;;;;;9.60;66.10;;;5.32;100.00;95298.84;5011697;28;19952;-49
2023/11/07 05:48:34;;;;;;;;;;;9.70;66.20;;;5.34;100.00;95307.34;5003155;28;19913;-51
2023/11/07 05:51:00;;;;;;;;;;;9.70;66.00;;;5.34;100.00;95304.69;5012038;28;19909;-51
2023/11/07 05:53:26;;;;;;;;;;;9.80;66.00;;;5.31;100.00;95308.63;5011134;28;19909;-47
2023/11/07 05:55:52;;;;;;;;;;;9.80;65.80;;;5.28;100.00;95306.44;5011839;28;19941;-48
2023/11/07 05:58:18;;;;;;;;;;;9.70;65.50;;;5.23;100.00;95295.00;5011757;28;19944;-48
2023/11/07 06:00:44;;;;;;;;;;;9.80;65.50;;;5.21;100.00;95305.81;5010442;28;20380;-49
2023/11/07 06:03:13;;;;;;;;;;;9.80;65.50;;;5.20;100.00;95306.03;5011454;28;19909;-48
2023/11/07 06:05:41;;;;;;;;;;;9.70;65.40;;;5.20;100.00;95306.84;5011070;28;19913;-50
2023/11/07 06:08:07;;;;;;;;;;;9.70;65.30;;;5.16;100.00;95310.97;5011608;28;19913;-49
2023/11/07 06:10:34;;;;;;;;;;;9.70;65.30;;;4.97;100.00;95306.94;5010835;28;19909;-49
2023/11/07 06:13:04;;;;;;;;;;;9.70;65.10;;;4.87;100.00;95316.25;5007505;28;20008;-48
2023/11/07 06:15:33;;;;;;;;;;;9.60;64.90;;;4.81;100.00;95314.56;5002233;28;20012;-50
2023/11/07 06:17:59;;;;;;;;;;;9.60;64.90;;;4.78;100.00;95315.03;5004193;28;19963;-49
2023/11/07 06:20:26;;;;;;;;;;;9.50;65.00;;;4.78;100.00;95316.88;5005394;28;19910;-50
2023/11/07 06:22:52;;;;;;;;;;;9.50;65.10;;;4.76;100.00;95324.22;5011548;28;19909;-49
2023/11/07 06:25:19;;;;;;;;;;;9.50;65.10;;;4.77;100.00;95326.63;5015341;28;19913;-49
2023/11/07 06:27:47;;;;;;;;;;;9.50;65.20;;;4.76;100.00;95322.38;5010822;28;20438;-49
2023/11/07 06:30:17;;;;;;;;;;;9.60;65.20;;;4.81;100.00;95327.75;5013858;28;19982;-48
2023/11/07 06:32:44;;;;;;;;;;;9.60;65.30;;;4.83;100.00;95328.34;4997854;28;19955;-48
2023/11/07 06:35:10;;;;;;;;;;;9.60;65.20;;;4.96;100.00;95334.38;5013402;28;19960;-48
2023/11/07 06:37:36;;;;;;;;;;;9.70;65.40;;;5.10;100.00;95346.25;5015001;28;20081;-48
2023/11/07 06:40:08;;;;;;;;;;;9.80;65.60;;;5.22;100.00;95346.22;5014888;28;20330;-48
2023/11/07 06:42:35;;;;;;;;;;;9.80;65.70;;;5.37;100.00;95359.69;5012507;28;19915;-48
2023/11/07 06:45:05;;;;;;;;;;;9.90;65.80;;;5.55;100.00;95359.50;5015430;28;20442;-49
2023/11/07 06:47:31;;;;;;;;;;;10.10;65.90;;;5.73;100.00;95355.81;5013301;28;19990;-50
2023/11/07 06:49:57;;;;;;;;;;;10.20;65.90;;;5.87;100.00;95358.97;5009721;28;19964;-50
2023/11/07 06:52:23;;;;;;;;;;;10.40;65.80;;;5.98;100.00;95358.09;5008381;28;19909;-49
2023/11/07 06:54:49;;;;;;;;;;;10.60;65.60;;;6.08;100.00;95361.94;5013529;28;19944;-50
2023/11/07 06:57:15;;;;;;;;;;;10.70;65.40;;;6.17;100.00;95365.78;5013588;28;19952;-50
2023/11/07 06:59:41;;;;;;;;;;;10.80;65.20;;;6.24;100.00;95361.16;5008573;28;20390;-51
2023/11/07 07:02:07;;;;;;;;;;;10.90;65.00;;;6.31;100.00;95350.41;5013925;28;20295;-48
2023/11/07 07:04:34;;;;;;;;;;;11.00;64.80;;;6.37;100.00;95360.00;5013134;28;19909;-50
2023/11/07 07:06:59;;;;;;;;;;;11.10;64.70;;;6.47;100.00;95366.22;5012275;28;19917;-50
2023/11/07 07:09:26;;;;;;;;;;;11.20;64.60;;;6.55;100.00;95364.19;5009314;28;19916;-50
2023/11/07 07:11:52;;;;;;;;;;;11.30;64.50;;;6.63;100.00;95369.88;5011798;28;19913;-48
2023/11/07 07:14:18;;;;;;;;;;;11.40;64.40;;;6.68;100.00;95367.31;5012723;28;19952;-48
2023/11/07 07:16:44;;;;;;;;;;;11.50;64.30;;;6.76;100.00;95360.00;5010226;28;19909;-48
2023/11/07 07:19:17;;;;;;;;;;;11.50;64.10;;;6.83;99.76;95363.25;5014373;28;19917;-48
2023/11/07 07:21:44;;;;;;;;;;;11.60;64.10;;;6.89;100.00;95368.38;5014286;28;20007;-48
2023/11/07 07:24:15;;;;;;;;;;;11.70;63.90;;;6.92;99.18;95365.22;5013027;28;19909;-48
2023/11/07 07:26:45;;;;;;;;;;;11.80;63.90;;;7.02;99.17;95367.22;5012894;28;19920;-49
2023/11/07 07:29:13;;;;;;;;;;;11.90;63.80;;;7.06;98.47;95373.59;5011744;28;19959;-48
2023/11/07 07:31:43;;;;;;;;;;;11.90;63.60;;;7.15;97.84;95369.47;5013761;28;19920;-49
2023/11/07 07:34:09;;;;;;;;;;;12.00;63.50;;;7.24;97.76;95375.16;5014056;28;19912;-48
2023/11/07 07:36:47;;;;;;;;;;;12.10;63.30;;;7.29;96.73;95379.69;5013530;28;19909;-48
2023/11/07 07:39:29;;;;;;;;;;;12.20;63.20;;;7.35;95.63;95376.03;5013671;28;19948;-47
2023/11/07 07:42:00;;;;;;;;;;;12.30;63.10;;;7.42;95.41;95381.94;5013310;28;19967;-48
2023/11/07 07:44:27;;;;;;;;;;;12.40;62.90;;;7.48;94.56;95388.09;5013481;28;19909;-49
2023/11/07 07:47:00;;;;;;;;;;;12.40;62.70;;;7.53;94.20;95396.91;5012836;28;19925;-50
2023/11/07 07:49:26;;;;;;;;;;;12.50;62.70;;;7.63;94.72;95397.00;5013516;28;19909;-53
2023/11/07 07:52:09;;;;;;;;;;;12.60;62.50;;;7.60;92.65;95394.06;5013728;28;20372;-54
2023/11/07 07:54:37;;;;;;;;;;;12.70;62.40;;;7.72;94.42;95402.66;5012922;28;19908;-50
2023/11/07 07:57:08;;;;;;;;;;;12.80;62.20;;;7.77;93.11;95405.38;5013440;28;19909;-50
2023/11/07 07:59:40;;;;;;;;;;;12.80;62.10;;;7.81;93.60;95405.69;5012563;28;19909;-49
2023/11/07 08:02:07;;;;;;;;;;;12.90;62.00;;;7.88;93.86;95411.56;5013253;28;20383;-49
2023/11/07 08:04:33;;;;;;;;;;;13.00;61.90;;;7.88;93.53;95409.72;5013380;28;19916;-53
2023/11/07 08:06:59;;;;;;;;;;;13.00;61.80;;;7.86;92.55;95416.31;5012637;28;19963;-47
2023/11/07 08:09:26;;;;;;;;;;;13.10;61.60;;;7.76;92.31;95414.38;5013436;28;19945;-55
2023/11/07 08:11:56;;;;;;;;;;;13.10;61.40;;;7.85;93.39;95410.22;5012424;28;20364;-46
2023/11/07 08:14:28;;;;;;;;;;;13.10;61.20;;;7.89;92.65;95419.25;5013222;28;20403;-45
2023/11/07 08:16:56;;;;;;;;;;;13.20;61.20;;;7.95;92.81;95411.34;4995714;28;19919;-47
2023/11/07 08:19:22;;;;;;;;;;;13.20;61.10;;;8.01;92.97;95421.75;5013818;28;20003;-55
2023/11/07 08:21:48;;;;;;;;;;;13.20;61.10;;;7.89;92.02;95413.94;5013365;28;20290;-54
2023/11/07 08:24:14;;;;;;;;;;;13.20;61.00;;;7.97;92.92;95423.31;5012286;28;19976;-53
2023/11/07 08:26:41;;;;;;;;;;;13.20;60.90;;;7.97;92.93;95419.88;4995277;28;19916;-54
2023/11/07 08:29:07;;;;;;;;;;;13.20;60.90;;;8.03;92.92;95417.00;5011908;28;19936;-53
2023/11/07 08:31:37;;;;;;;;;;;13.20;60.80;;;8.08;92.06;95408.28;5012600;28;19916;-54
2023/11/07 08:34:09;;;;;;;;;;;13.30;60.70;;;8.15;91.04;95402.75;5012924;28;20024;-55
2023/11/07 08:36:39;;;;;;;;;;;13.40;60.70;;;8.20;90.93;95400.94;5012218;28;19909;-53
2023/11/07 08:39:23;;;;;;;;;;;13.50;60.50;;;8.29;89.88;95394.13;4995105;28;20300;-55
2023/11/07 08:41:53;;;;;;;;;;;13.60;60.40;;;8.41;90.53;95393.19;5011823;28;19974;-54
2023/11/07 08:44:21;;;;;;;;;;;13.80;60.40;;;8.44;88.26;95398.00;5012942;28;19921;-56
2023/11/07 08:46:48;;;;;;;;;;;13.90;60.20;;;8.46;87.22;95403.81;5011490;28;20434;-54
2023/11/07 08:49:17;;;;;;;;;;;14.00;59.90;;;8.52;85.93;95416.06;5012398;28;20345;-53
2023/11/07 08:51:50;;;;;;;;;;;14.10;59.60;;;8.59;86.21;95424.66;5012579;28;19909;-56
2023/11/07 08:54:18;;;;;;;;;;;14.10;59.40;;;8.65;85.71;95420.97;5012284;28;19916;-51
2023/11/07 08:56:48;;;;;;;;;;;14.20;59.40;;;8.64;85.25;95423.88;5012844;28;20000;-55
2023/11/07 08:59:17;;;;;;;;;;;14.20;59.20;;;8.70;83.57;95428.94;5011188;28;20268;-52
2023/11/07 09:01:46;;;;;;;;;;;14.20;59.10;;;8.76;82.94;95424.47;5012451;28;19921;-55
2023/11/07 09:04:13;;;;;;;;;;;14.20;59.00;;;8.83;82.96;95427.69;5005100;28;19944;-54
2023/11/07 09:06:40;;;;;;;;;;;14.30;58.90;;;8.93;82.29;95427.78;5011316;28;19913;-53
2023/11/07 09:09:14;;;;;;;;;;;14.40;58.80;;;9.00;81.75;95435.50;5012452;28;19917;-52
2023/11/07 09:11:41;;;;;;;;;;;14.40;58.80;;;8.95;81.41;95433.59;5012132;28;19999;-54
2023/11/07 09:14:07;;;;;;;;;;;14.40;58.60;;;9.05;82.16;95435.53;5012669;28;19909;-50
2023/11/07 09:16:33;;;;;;;;;;;14.40;58.50;;;8.97;80.77;95439.47;5011949;28;19916;-49
2023/11/07 09:18:59;;;;;;;;;;;14.40;59.10;;;8.91;81.98;95437.84;5012424;28;19909;-54
2023/11/07 09:21:26;;;;;;;;;;;14.30;58.40;;;8.91;81.98;95439.72;5012787;28;19916;-53
2023/11/07 09:23:53;;;;;;;;;;;14.30;58.40;;;8.84;83.17;95437.28;4994234;28;19936;-54
2023/11/07 09:26:19;;;;;;;;;;;14.30;58.20;;;8.76;82.97;95440.41;5012372;28;19913;-55
2023/11/07 09:28:45;;;;;;;;;;;14.30;58.10;;;8.84;82.90;95444.44;5011653;28;19959;-55
2023/11/07 09:31:14;;;;;;;;;;;14.30;58.10;;;8.88;81.64;95437.56;5012084;28;19909;-55
2023/11/07 09:33:40;;;;;;;;;;;14.30;58.00;;;8.77;81.24;95434.84;5012559;28;19920;-55
2023/11/07 09:36:06;;;;;;;;;;;14.40;57.90;;;8.86;82.58;95432.50;5010405;28;19909;-50
2023/11/07 09:38:32;;;;;;;;;;;14.30;57.80;;;8.74;80.19;95423.91;5012442;28;19917;-56
2023/11/07 09:40:58;;;;;;;;;;;14.40;57.70;;;8.67;80.98;95421.50;5011304;28;20656;-52
2023/11/07 09:43:26;;;;;;;;;;;14.30;57.20;;;8.71;81.61;95424.44;5012389;28;19913;-52
2023/11/07 09:45:56;;;;;;;;;;;14.30;57.20;;;8.73;81.18;95425.00;5011899;28;20008;-50
2023/11/07 09:48:25;;;;;;;;;;;14.30;57.00;;;8.78;81.32;95425.03;5011112;28;19966;-55
2023/11/07 09:50:54;;;;;;;;;;;14.40;57.10;;;8.83;82.33;95419.72;5012676;28;20253;-54
2023/11/07 09:53:21;;;;;;;;;;;14.40;57.00;;;8.85;78.95;95416.81;5013468;28;19955;-53
2023/11/07 09:55:50;;;;;;;;;;;14.50;57.10;;;8.93;79.41;95419.81;5016488;28;19909;-53
2023/11/07 09:58:27;;;;;;;;;;;14.60;56.70;;;9.08;78.38;95426.25;5016265;28;19909;-51
2023/11/07 10:00:57;;;;;;;;;;;14.70;56.50;;;9.21;79.54;95420.44;5014453;28;19919;-52
2023/11/07 10:03:23;;;;;;;;;;;14.80;56.40;;;9.30;77.74;95418.09;4999001;28;20356;-53
2023/11/07 10:05:51;;;;;;;;;;;14.90;56.40;;;9.37;77.35;95414.16;5013688;28;20007;-47
2023/11/07 10:08:22;;;;;;;;;;;15.00;56.40;;;9.40;77.24;95418.13;5013551;28;19917;-45
2023/11/07 10:11:12;;;;;;;;;;;15.10;56.20;;;9.34;77.49;95412.00;4997528;28;20299;-51
2023/11/07 10:13:57;;;;;;;;;;;15.10;55.90;;;9.31;77.00;95414.38;5011185;28;19920;-45
2023/11/07 10:16:33;;;;;;;;;;;15.10;55.60;;;9.35;77.07;95407.50;5000737;28;19909;-46
2023/11/07 10:19:01;;;;;;;;;;;15.20;55.50;;;9.46;76.67;95412.59;4999268;28;19913;-46
2023/11/07 10:21:36;;;;;;;;;;;15.20;55.50;;;9.62;74.89;95415.25;5015634;28;19909;-45
2023/11/07 10:24:02;;;;;;;;;;;15.40;55.40;;;9.78;73.08;95402.81;4997669;28;20354;-46
2023/11/07 10:26:28;;;;;;;;;;;15.70;55.20;;;10.04;72.75;95412.44;5015407;28;19996;-45
2023/11/07 10:29:14;;;;;;;;;;;15.90;54.80;;;10.08;70.71;95412.69;5014863;28;19912;-45
2023/11/07 10:31:42;;;;;;;;;;;16.10;54.40;;;10.17;70.68;95413.78;5011507;28;19917;-46
2023/11/07 10:34:19;;;;;;;;;;;16.30;54.00;;;10.28;70.65;95417.25;5015457;28;20011;-45
2023/11/07 10:36:45;;;;;;;;;;;16.40;53.80;;;10.44;71.28;95423.41;5007198;28;19916;-55
2023/11/07 10:39:21;;;;;;;;;;;16.50;53.60;;;10.60;71.54;95411.66;5012692;28;19917;-46
2023/11/07 10:41:47;;;;;;;;;;;16.80;53.60;;;10.69;69.33;95404.72;4997523;28;19913;-46
2023/11/07 10:44:30;;;;;;;;;;;17.00;53.20;;;10.88;69.14;95410.28;5015212;28;19909;-45
2023/11/07 10:46:57;;;;;;;;;;;17.40;52.90;;;10.82;67.21;95411.34;5012265;28;19917;-46
2023/11/07 10:49:25;;;;;;;;;;;17.60;51.90;;;10.83;64.99;95403.09;5015452;28;20322;-46
2023/11/07 10:51:52;;;;;;;;;;;17.70;51.30;;;10.70;65.54;95406.31;5015281;28;19909;-46
2023/11/07 10:54:20;;;;;;;;;;;17.60;50.90;;;10.69;66.41;95406.59;5014598;28;19932;-46
2023/11/07 10:56:48;;;;;;;;;;;17.90;50.10;;;10.95;64.37;95402.00;5014956;28;19909;-49
2023/11/07 10:59:23;;;;;;;;;;;18.00;49.90;;;10.80;64.20;95389.50;5014452;28;19909;-46
2023/11/07 11:01:57;;;;;;;;;;;18.10;49.00;;;11.01;63.44;95395.59;5009424;28;19917;-46
2023/11/07 11:04:25;;;;;;;;;;;18.30;48.60;;;11.41;61.65;95383.19;5003873;28;19909;-46
2023/11/07 11:07:04;;;;;;;;;;;18.90;48.00;;;11.62;60.83;95386.50;4993924;28;19913;-46
2023/11/07 11:09:34;;;;;;;;;;;19.30;47.50;;;11.79;61.05;95386.97;5010889;28;20493;-46
2023/11/07 11:12:06;;;;;;;;;;;19.60;47.10;;;11.48;61.43;95384.47;5014268;28;19978;-48
2023/11/07 11:14:33;;;;;;;;;;;19.70;46.30;;;11.38;63.08;95386.38;5015019;28;20510;-46
2023/11/07 11:17:31;;;;;;;;;;;19.50;45.70;;;11.60;63.87;95388.69;5013997;28;19965;-46
2023/11/07 11:20:02;;;;;;;;;;;19.30;46.00;;;11.93;63.40;95384.50;4992837;28;19909;-46
2023/11/07 11:22:50;;;;;;;;;;;19.30;46.60;;;12.11;63.89;95385.72;4997859;28;19955;-45
2023/11/07 11:25:58;;;;;;;;;;;19.60;46.90;;;12.17;61.58;95374.72;5007655;28;20393;-46
2023/11/07 11:28:44;;;;;;;;;;;19.80;46.90;;;12.43;63.17;95382.50;5014493;28;19967;-46